Time;durP1;ratioP1;P1;durP2;ratioP2;P2;SDS_P1;SDS_P2;PMS_P1;PMS_P2;Temp;Humidity;BMP_temperature;BMP_pressure;BME280_temperature;BME280_humidity;BME280_pressure;Samples;Min_cycle;Max_cycle;Signal;HPM_P1;HPM_P2
2023/10/10 06:12:21;;;;;;;17.48;5.88;;;;;;;;;;6320275;22;20388;-69
2023/10/10 06:14:49;;;;;;;20.08;5.75;;;;;;;;;;6316439;22;20026;-69
2023/10/10 06:17:16;;;;;;;19.00;5.72;;;;;;;;;;6317198;22;20045;-68
2023/10/10 06:31:44;;;;;;;24.70;7.20;;;;;;;;;;6318884;22;20448;-65
2023/10/10 06:34:22;;;;;;;23.38;6.95;;;;;;;;;;6316159;22;20022;-65
2023/10/10 06:36:51;;;;;;;21.50;6.78;;;;;;;;;;6316186;22;20086;-64
2023/10/10 06:39:19;;;;;;;24.90;7.32;;;;;;;;;;6316603;22;20046;-65
2023/10/10 06:41:50;;;;;;;21.60;6.65;;;;;;;;;;6316181;22;20026;-65
2023/10/10 06:44:40;;;;;;;19.23;6.82;;;;;;;;;;6316368;22;20034;-65
2023/10/10 06:47:11;;;;;;;22.15;6.43;;;;;;;;;;6288881;22;20043;-65
2023/10/10 06:49:55;;;;;;;24.95;7.40;;;;;;;;;;6288880;22;20018;-65
2023/10/10 06:52:30;;;;;;;22.00;7.82;;;;;;;;;;6316221;22;20376;-63
2023/10/10 06:54:57;;;;;;;19.50;6.90;;;;;;;;;;6316103;22;20042;-64
2023/10/10 06:57:38;;;;;;;17.23;6.93;;;;;;;;;;6316164;22;20019;-64
2023/10/10 07:00:21;;;;;;;19.83;7.13;;;;;;;;;;6315993;22;20025;-64
2023/10/10 07:02:52;;;;;;;24.65;8.18;;;;;;;;;;6316118;22;20015;-64
2023/10/10 07:05:20;;;;;;;25.20;7.80;;;;;;;;;;6316038;22;20026;-64
2023/10/10 07:07:57;;;;;;;20.02;6.60;;;;;;;;;;6316304;22;20015;-64
2023/10/10 07:10:26;;;;;;;20.65;7.05;;;;;;;;;;6315971;22;20038;-63
2023/10/10 07:12:57;;;;;;;24.98;6.75;;;;;;;;;;6316251;22;20086;-64
2023/10/10 07:15:26;;;;;;;23.05;7.00;;;;;;;;;;6288847;22;20026;-63
2023/10/10 07:18:08;;;;;;;31.98;7.45;;;;;;;;;;6315876;22;20086;-63
2023/10/10 07:23:23;;;;;;;21.58;6.80;;;;;;;;;;6315876;22;20011;-63
2023/10/10 07:26:01;;;;;;;21.65;5.95;;;;;;;;;;6315832;22;20019;-64
2023/10/10 07:28:29;;;;;;;16.70;5.22;;;;;;;;;;6315834;22;20097;-63
2023/10/10 07:30:56;;;;;;;13.23;5.18;;;;;;;;;;6313550;22;20015;-63
2023/10/10 07:33:29;;;;;;;14.18;5.22;;;;;;;;;;6308843;22;20039;-63
2023/10/10 07:35:57;;;;;;;20.70;5.63;;;;;;;;;;6308763;22;20380;-63
2023/10/10 07:38:27;;;;;;;15.88;5.18;;;;;;;;;;6308706;22;20042;-63
2023/10/10 07:40:55;;;;;;;16.38;4.90;;;;;;;;;;6281646;22;20062;-63
2023/10/10 07:43:26;;;;;;;18.77;6.00;;;;;;;;;;6308617;22;20043;-63
2023/10/10 07:45:55;;;;;;;17.10;5.30;;;;;;;;;;6308747;22;20019;-64
2023/10/10 07:51:05;;;;;;;16.45;6.43;;;;;;;;;;6308661;22;20015;-64
2023/10/10 07:53:41;;;;;;;24.90;6.28;;;;;;;;;;6308594;22;20074;-63
2023/10/10 07:56:08;;;;;;;18.98;5.82;;;;;;;;;;6281467;22;20026;-64
2023/10/10 07:58:56;;;;;;;18.27;6.82;;;;;;;;;;6281149;22;20018;-64
2023/10/10 08:01:24;;;;;;;21.10;6.95;;;;;;;;;;6308450;22;20018;-63
2023/10/10 08:03:52;;;;;;;20.17;7.28;;;;;;;;;;6308565;22;20015;-64
2023/10/10 08:06:22;;;;;;;15.95;5.90;;;;;;;;;;6281511;22;20019;-63
2023/10/10 08:11:37;;;;;;;13.73;5.78;;;;;;;;;;6308368;22;20015;-63
2023/10/10 08:14:09;;;;;;;13.60;5.10;;;;;;;;;;6308490;22;20433;-63
2023/10/10 08:16:39;;;;;;;14.50;4.95;;;;;;;;;;6308389;22;20018;-64
2023/10/10 08:19:11;;;;;;;15.88;4.75;;;;;;;;;;6308465;22;20048;-63
2023/10/10 08:21:48;;;;;;;12.57;4.60;;;;;;;;;;6308196;22;20344;-63
2023/10/10 08:24:17;;;;;;;12.43;4.35;;;;;;;;;;6308432;22;20015;-64
2023/10/10 08:26:44;;;;;;;16.23;4.50;;;;;;;;;;6308321;22;20092;-64
2023/10/10 08:29:13;;;;;;;18.27;5.10;;;;;;;;;;6280823;22;20026;-64
2023/10/10 08:31:42;;;;;;;10.10;4.65;;;;;;;;;;6280753;22;20349;-64
2023/10/10 08:34:10;;;;;;;11.65;4.57;;;;;;;;;;6308263;22;20022;-63
2023/10/10 08:36:43;;;;;;;14.95;4.63;;;;;;;;;;6308185;22;20042;-64
2023/10/10 08:39:25;;;;;;;10.50;5.15;;;;;;;;;;6308170;22;20020;-64
2023/10/10 08:41:53;;;;;;;11.05;3.85;;;;;;;;;;6308089;22;20090;-64
2023/10/10 08:44:20;;;;;;;14.65;6.70;;;;;;;;;;6307649;22;20015;-64
2023/10/10 08:46:49;;;;;;;9.95;5.43;;;;;;;;;;6307950;22;20094;-63
2023/10/10 08:49:17;;;;;;;13.68;3.95;;;;;;;;;;6281203;22;20011;-65
2023/10/10 08:51:45;;;;;;;12.27;3.70;;;;;;;;;;6307993;22;20050;-63
2023/10/10 08:54:15;;;;;;;8.88;4.05;;;;;;;;;;6307994;22;20023;-63
2023/10/10 08:57:10;;;;;;;13.77;3.83;;;;;;;;;;6308047;22;20012;-63
2023/10/10 08:59:33;;;;;;;14.38;4.18;;;;;;;;;;6307753;22;20526;-64
2023/10/10 09:02:06;;;;;;;12.32;4.00;;;;;;;;;;6308033;22;20015;-64
2023/10/10 09:04:34;;;;;;;15.30;4.07;;;;;;;;;;6308271;22;20395;-64
2023/10/10 09:07:08;;;;;;;10.25;3.05;;;;;;;;;;6307851;22;20092;-65
2023/10/10 09:09:54;;;;;;;11.03;3.33;;;;;;;;;;6307822;22;20429;-65
2023/10/10 09:12:23;;;;;;;7.57;3.28;;;;;;;;;;6307873;22;20043;-65
2023/10/10 09:14:51;;;;;;;7.78;3.00;;;;;;;;;;6307695;22;20015;-64
2023/10/10 09:17:28;;;;;;;10.05;3.03;;;;;;;;;;6307646;22;20031;-65
2023/10/10 09:19:57;;;;;;;6.80;2.90;;;;;;;;;;6307937;22;20015;-65
2023/10/10 09:22:44;;;;;;;9.50;3.55;;;;;;;;;;6281168;22;20420;-65
2023/10/10 09:25:42;;;;;;;8.82;3.90;;;;;;;;;;6307883;22;20015;-65
2023/10/10 09:28:16;;;;;;;10.23;3.47;;;;;;;;;;6256633;22;20023;-65
2023/10/10 09:30:50;;;;;;;15.55;3.70;;;;;;;;;;6307272;22;20012;-63
2023/10/10 09:35:58;;;;;;;5.30;2.80;;;;;;;;;;6307532;22;20072;-63
2023/10/10 09:38:34;;;;;;;11.30;3.40;;;;;;;;;;6307600;22;20015;-64
2023/10/10 09:41:11;;;;;;;11.35;3.58;;;;;;;;;;6307540;22;20428;-66
2023/10/10 09:44:25;;;;;;;10.27;3.28;;;;;;;;;;6307502;22;20023;-65
2023/10/10 09:46:59;;;;;;;6.55;3.08;;;;;;;;;;6279857;22;20042;-63
2023/10/10 09:49:51;;;;;;;14.35;4.00;;;;;;;;;;6307297;22;20116;-63
2023/10/10 09:55:38;;;;;;;11.07;3.45;;;;;;;;;;6307243;22;20020;-67
2023/10/10 10:09:02;;;;;;;11.68;3.40;;;;;;;;;;6307295;22;20029;-65
2023/10/10 10:11:35;;;;;;;15.75;4.10;;;;;;;;;;6279837;22;20023;-65
2023/10/10 10:14:12;;;;;;;9.93;3.50;;;;;;;;;;6307199;22;20038;-65
2023/10/10 10:16:52;;;;;;;9.35;3.80;;;;;;;;;;6307290;22;20069;-66
2023/10/10 10:19:28;;;;;;;8.35;3.40;;;;;;;;;;6307215;22;20012;-64
2023/10/10 10:22:08;;;;;;;10.32;3.65;;;;;;;;;;6307180;22;20015;-64
2023/10/10 10:24:45;;;;;;;9.05;3.80;;;;;;;;;;6307262;22;20021;-64
2023/10/10 10:27:23;;;;;;;9.75;3.13;;;;;;;;;;6307258;22;20088;-64
2023/10/10 10:29:54;;;;;;;15.88;4.85;;;;;;;;;;6307157;22;20019;-64
2023/10/10 10:32:24;;;;;;;9.90;3.53;;;;;;;;;;6307201;22;20318;-64
2023/10/10 10:34:58;;;;;;;19.65;4.00;;;;;;;;;;6307113;22;20012;-64
2023/10/10 10:37:28;;;;;;;15.88;4.07;;;;;;;;;;6307174;22;20495;-64
2023/10/10 10:42:46;;;;;;;16.75;4.03;;;;;;;;;;6279662;22;20025;-64
2023/10/10 10:45:33;;;;;;;10.00;3.67;;;;;;;;;;6307260;22;20037;-64
2023/10/10 10:48:06;;;;;;;8.50;3.65;;;;;;;;;;6307249;22;20015;-65
2023/10/10 10:50:58;;;;;;;12.27;4.72;;;;;;;;;;6306968;22;20025;-65
2023/10/10 10:53:38;;;;;;;9.60;3.03;;;;;;;;;;6307121;22;20073;-65
2023/10/10 10:56:37;;;;;;;7.60;3.35;;;;;;;;;;6307146;22;20023;-65
2023/10/10 11:01:26;;;;;;;8.15;3.47;;;;;;;;;;6307007;22;20019;-65
2023/10/10 11:03:55;;;;;;;9.20;3.10;;;;;;;;;;6307506;22;20015;-64
2023/10/10 11:06:28;;;;;;;9.50;4.05;;;;;;;;;;6280707;22;20011;-64
2023/10/10 11:09:09;;;;;;;11.60;3.55;;;;;;;;;;6283344;22;20015;-64
2023/10/10 11:11:37;;;;;;;9.32;3.33;;;;;;;;;;6309097;22;20022;-64
2023/10/10 11:16:46;;;;;;;12.13;3.40;;;;;;;;;;6308740;22;20030;-64
2023/10/10 11:22:00;;;;;;;8.02;3.05;;;;;;;;;;6308599;22;20322;-64
2023/10/10 11:24:31;;;;;;;11.05;3.20;;;;;;;;;;6308701;22;20023;-64
2023/10/10 11:29:45;;;;;;;6.60;2.97;;;;;;;;;;6308451;22;20034;-64
2023/10/10 11:32:14;;;;;;;12.30;3.28;;;;;;;;;;6281637;22;20046;-64
2023/10/10 11:34:45;;;;;;;11.70;3.00;;;;;;;;;;6308473;22;20064;-64
2023/10/10 11:37:13;;;;;;;10.10;3.10;;;;;;;;;;6308603;22;20011;-65
2023/10/10 11:39:47;;;;;;;7.78;2.85;;;;;;;;;;6281675;22;20366;-65
2023/10/10 11:42:26;;;;;;;9.20;2.97;;;;;;;;;;6308647;22;20015;-65
2023/10/10 11:45:17;;;;;;;11.07;3.40;;;;;;;;;;6308962;22;20376;-65
2023/10/10 11:47:45;;;;;;;8.65;3.08;;;;;;;;;;6308640;22;20500;-64
2023/10/10 11:50:15;;;;;;;6.50;2.95;;;;;;;;;;6308643;22;20492;-64
2023/10/10 11:52:56;;;;;;;8.20;3.05;;;;;;;;;;6308745;22;20015;-65
2023/10/10 11:55:24;;;;;;;6.78;2.92;;;;;;;;;;6308746;22;20019;-64
2023/10/10 11:57:57;;;;;;;8.18;3.17;;;;;;;;;;6308546;22;20022;-64
2023/10/10 12:00:30;;;;;;;10.75;3.13;;;;;;;;;;6308446;22;20026;-64
2023/10/10 12:02:57;;;;;;;10.15;3.28;;;;;;;;;;6308681;22;20514;-64
2023/10/10 12:07:58;;;;;;;8.88;3.38;;;;;;;;;;6308495;22;20348;-64
2023/10/10 12:10:42;;;;;;;11.02;3.00;;;;;;;;;;6308510;22;20012;-64
2023/10/10 12:13:12;;;;;;;4.88;3.00;;;;;;;;;;6308486;22;20019;-64
2023/10/10 12:15:45;;;;;;;8.63;3.15;;;;;;;;;;6308222;22;20019;-65
2023/10/10 12:18:13;;;;;;;10.70;3.35;;;;;;;;;;6308277;22;20015;-64
2023/10/10 12:20:44;;;;;;;15.00;3.78;;;;;;;;;;6308235;22;20018;-64
2023/10/10 12:23:12;;;;;;;9.43;3.30;;;;;;;;;;6308363;22;20054;-64
2023/10/10 12:25:42;;;;;;;10.18;3.22;;;;;;;;;;6308395;22;20019;-64
2023/10/10 12:28:12;;;;;;;7.63;3.15;;;;;;;;;;6308274;22;20015;-64
2023/10/10 12:30:40;;;;;;;8.00;3.67;;;;;;;;;;6280805;22;20051;-64
2023/10/10 12:33:08;;;;;;;10.77;3.28;;;;;;;;;;6306434;22;20086;-65
2023/10/10 12:35:36;;;;;;;7.80;3.30;;;;;;;;;;6307619;22;20077;-65
2023/10/10 12:38:04;;;;;;;9.43;3.13;;;;;;;;;;6307426;22;20025;-65
2023/10/10 12:40:33;;;;;;;9.60;3.08;;;;;;;;;;6307162;22;20056;-65
2023/10/10 12:43:01;;;;;;;11.68;3.17;;;;;;;;;;6307593;22;20015;-65
2023/10/10 12:45:29;;;;;;;8.38;3.00;;;;;;;;;;6307883;22;20091;-64
2023/10/10 12:47:58;;;;;;;7.78;3.15;;;;;;;;;;6307953;22;20094;-65
2023/10/10 12:50:26;;;;;;;7.72;2.95;;;;;;;;;;6280513;22;20019;-64
2023/10/10 12:53:07;;;;;;;9.57;3.65;;;;;;;;;;6280446;22;20019;-64
2023/10/10 12:55:36;;;;;;;8.10;3.20;;;;;;;;;;6307739;22;20015;-65
2023/10/10 12:58:14;;;;;;;9.88;4.32;;;;;;;;;;6281061;22;20103;-64
2023/10/10 13:00:50;;;;;;;9.13;3.47;;;;;;;;;;6307552;22;20021;-64
2023/10/10 13:03:18;;;;;;;8.32;3.13;;;;;;;;;;6305721;22;20457;-64
2023/10/10 13:05:52;;;;;;;10.63;3.20;;;;;;;;;;6306360;22;20019;-64
2023/10/10 13:08:22;;;;;;;9.27;3.30;;;;;;;;;;6305671;22;20034;-64
2023/10/10 13:11:00;;;;;;;7.13;3.03;;;;;;;;;;6305033;22;20011;-64
2023/10/10 13:13:31;;;;;;;11.65;3.13;;;;;;;;;;6305914;22;20041;-64
2023/10/10 13:16:22;;;;;;;10.02;3.22;;;;;;;;;;6305477;22;20026;-64
2023/10/10 13:18:53;;;;;;;12.35;4.07;;;;;;;;;;6305968;22;20015;-64
2023/10/10 13:21:21;;;;;;;15.07;3.30;;;;;;;;;;6277787;22;20597;-64
2023/10/10 13:23:49;;;;;;;8.13;3.05;;;;;;;;;;6305252;22;20022;-64
2023/10/10 13:26:17;;;;;;;9.45;3.30;;;;;;;;;;6305630;22;20015;-64
2023/10/10 13:28:45;;;;;;;11.55;3.08;;;;;;;;;;6305059;22;20094;-65
2023/10/10 13:31:13;;;;;;;13.57;3.83;;;;;;;;;;6306213;22;20076;-64
2023/10/10 13:33:41;;;;;;;12.02;3.17;;;;;;;;;;6307015;22;20038;-64
2023/10/10 13:36:12;;;;;;;10.13;3.28;;;;;;;;;;6307477;22;20011;-64
2023/10/10 13:38:47;;;;;;;8.07;3.13;;;;;;;;;;6307381;22;20015;-63
2023/10/10 13:41:18;;;;;;;9.48;3.35;;;;;;;;;;6307229;22;20015;-63
2023/10/10 13:43:49;;;;;;;10.63;3.70;;;;;;;;;;6306333;22;20467;-63
2023/10/10 13:46:20;;;;;;;13.63;3.08;;;;;;;;;;6307033;22;20015;-63
2023/10/10 13:48:48;;;;;;;8.27;3.22;;;;;;;;;;6307377;22;20015;-63
2023/10/10 13:51:16;;;;;;;12.02;3.63;;;;;;;;;;6307140;22;20334;-63
2023/10/10 13:53:46;;;;;;;8.65;3.70;;;;;;;;;;6306974;22;20015;-64
2023/10/10 13:56:16;;;;;;;10.60;3.28;;;;;;;;;;6306996;22;20098;-63
2023/10/10 13:58:48;;;;;;;8.63;3.63;;;;;;;;;;6307044;22;20347;-63
2023/10/10 14:04:23;;;;;;;8.60;3.40;;;;;;;;;;6287479;22;20020;-64
2023/10/10 14:06:54;;;;;;;11.77;4.15;;;;;;;;;;6306812;22;20019;-63
2023/10/10 14:09:25;;;;;;;6.88;2.85;;;;;;;;;;6297726;22;20092;-63
2023/10/10 14:12:03;;;;;;;11.57;3.50;;;;;;;;;;6272758;22;20086;-63
2023/10/10 14:14:31;;;;;;;10.80;3.15;;;;;;;;;;6299720;22;20019;-63
2023/10/10 14:16:58;;;;;;;8.05;3.00;;;;;;;;;;6299680;22;20019;-62
2023/10/10 14:19:26;;;;;;;19.70;6.72;;;;;;;;;;6300221;22;20019;-64
2023/10/10 14:21:54;;;;;;;13.63;4.20;;;;;;;;;;6299466;22;20022;-64
2023/10/10 14:24:21;;;;;;;15.52;5.13;;;;;;;;;;6299453;22;20015;-63
2023/10/10 14:26:49;;;;;;;23.00;4.18;;;;;;;;;;6300173;22;20082;-63
2023/10/10 14:29:18;;;;;;;16.50;3.53;;;;;;;;;;6273136;22;20426;-64
2023/10/10 14:31:46;;;;;;;13.07;3.25;;;;;;;;;;6298383;22;20020;-63
2023/10/10 14:34:24;;;;;;;14.85;2.88;;;;;;;;;;6299251;22;20015;-63
2023/10/10 14:36:53;;;;;;;14.30;4.03;;;;;;;;;;6299876;22;20424;-63
2023/10/10 14:39:31;;;;;;;18.35;3.40;;;;;;;;;;6273456;22;20507;-63
2023/10/10 14:42:00;;;;;;;25.20;12.38;;;;;;;;;;6301195;22;20137;-63
2023/10/10 14:44:28;;;;;;;25.23;6.63;;;;;;;;;;6301088;22;20077;-63
2023/10/10 14:47:02;;;;;;;13.48;5.95;;;;;;;;;;6302211;22;20050;-63
2023/10/10 14:49:34;;;;;;;20.63;8.98;;;;;;;;;;6301097;22;20452;-64
2023/10/10 14:52:06;;;;;;;22.80;6.07;;;;;;;;;;6301084;22;20047;-64
2023/10/10 14:54:37;;;;;;;22.90;8.10;;;;;;;;;;6301707;22;20308;-64
2023/10/10 14:57:06;;;;;;;22.85;6.38;;;;;;;;;;6300927;22;20094;-64
2023/10/10 14:59:35;;;;;;;11.27;4.68;;;;;;;;;;6301078;22;20015;-66
2023/10/10 15:02:06;;;;;;;16.13;4.50;;;;;;;;;;6301005;22;20080;-64
2023/10/10 15:04:35;;;;;;;28.98;8.10;;;;;;;;;;6300535;22;20022;-64
2023/10/10 15:07:04;;;;;;;21.70;6.13;;;;;;;;;;6301103;22;20054;-64
2023/10/10 15:09:36;;;;;;;14.95;4.35;;;;;;;;;;6299555;22;20054;-65
2023/10/10 15:12:03;;;;;;;17.65;3.53;;;;;;;;;;6300709;22;20038;-64
2023/10/10 15:14:32;;;;;;;12.68;4.97;;;;;;;;;;6301091;22;20015;-64
2023/10/10 15:17:03;;;;;;;10.68;4.43;;;;;;;;;;6301175;22;20046;-64
2023/10/10 15:19:32;;;;;;;13.88;4.55;;;;;;;;;;6300519;22;20030;-63
2023/10/10 15:21:59;;;;;;;20.30;3.60;;;;;;;;;;6300458;22;20122;-64
2023/10/10 15:24:30;;;;;;;27.38;4.45;;;;;;;;;;6300500;22;20509;-64
2023/10/10 15:26:59;;;;;;;19.33;4.00;;;;;;;;;;6301902;22;20015;-63
2023/10/10 15:29:27;;;;;;;12.60;3.58;;;;;;;;;;6300906;22;20015;-63
2023/10/10 15:31:56;;;;;;;17.42;3.97;;;;;;;;;;6301299;22;20449;-64
2023/10/10 15:34:24;;;;;;;22.60;4.55;;;;;;;;;;6274294;22;20045;-65
2023/10/10 15:36:52;;;;;;;14.20;4.13;;;;;;;;;;6301716;22;20043;-65
2023/10/10 15:39:19;;;;;;;18.50;4.55;;;;;;;;;;6301569;22;20022;-65
2023/10/10 15:41:47;;;;;;;12.60;4.63;;;;;;;;;;6300896;22;20049;-65
2023/10/10 15:44:15;;;;;;;17.67;4.90;;;;;;;;;;6298206;22;20119;-63
2023/10/10 15:46:44;;;;;;;16.15;5.05;;;;;;;;;;6299750;22;20019;-64
2023/10/10 15:49:12;;;;;;;12.23;4.50;;;;;;;;;;6300067;22;20448;-64
2023/10/10 15:51:44;;;;;;;12.05;4.32;;;;;;;;;;6299973;22;20069;-64
2023/10/10 15:54:14;;;;;;;9.70;4.60;;;;;;;;;;6298657;22;20026;-63
2023/10/10 15:56:42;;;;;;;14.98;4.25;;;;;;;;;;6298288;22;20046;-64
2023/10/10 15:59:14;;;;;;;17.23;4.00;;;;;;;;;;6298057;22;20026;-64
2023/10/10 16:01:46;;;;;;;13.95;3.50;;;;;;;;;;6299199;22;20033;-64
2023/10/10 16:04:17;;;;;;;17.65;3.70;;;;;;;;;;6299246;22;20019;-64
2023/10/10 16:06:47;;;;;;;6.22;2.88;;;;;;;;;;6299186;22;20020;-65
2023/10/10 16:09:30;;;;;;;8.77;3.20;;;;;;;;;;6299423;22;20452;-64
2023/10/10 16:11:58;;;;;;;7.50;3.00;;;;;;;;;;6298601;22;20391;-64
2023/10/10 16:14:25;;;;;;;19.60;3.67;;;;;;;;;;6299029;22;20015;-65
2023/10/10 16:16:54;;;;;;;13.45;4.35;;;;;;;;;;6298513;22;20068;-64
2023/10/10 16:19:25;;;;;;;13.82;3.30;;;;;;;;;;6270998;22;20011;-64
2023/10/10 16:21:54;;;;;;;13.13;4.75;;;;;;;;;;6298893;22;20702;-64
2023/10/10 16:24:27;;;;;;;14.80;3.92;;;;;;;;;;6299088;22;20021;-64
2023/10/10 16:27:02;;;;;;;11.57;4.82;;;;;;;;;;6298669;22;20019;-64
2023/10/10 16:29:33;;;;;;;11.55;3.70;;;;;;;;;;6297629;22;20086;-64
2023/10/10 16:32:17;;;;;;;18.58;4.53;;;;;;;;;;6297518;22;20027;-64
2023/10/10 16:34:44;;;;;;;16.27;4.55;;;;;;;;;;6298396;22;20015;-64
2023/10/10 16:37:15;;;;;;;12.85;3.80;;;;;;;;;;6298761;22;20615;-65
2023/10/10 16:39:46;;;;;;;10.13;3.72;;;;;;;;;;6297194;22;20094;-65
2023/10/10 16:42:18;;;;;;;10.15;3.80;;;;;;;;;;6298423;22;20015;-65
2023/10/10 16:44:46;;;;;;;10.80;3.53;;;;;;;;;;6297605;22;20039;-64
2023/10/10 16:47:19;;;;;;;12.30;3.50;;;;;;;;;;6299990;22;20023;-65
2023/10/10 16:49:51;;;;;;;12.18;3.20;;;;;;;;;;6271849;22;20073;-64
2023/10/10 16:52:28;;;;;;;11.95;3.70;;;;;;;;;;6299569;22;20723;-63
2023/10/10 16:54:56;;;;;;;9.38;2.97;;;;;;;;;;6299459;22;20019;-63
2023/10/10 16:57:24;;;;;;;7.78;2.90;;;;;;;;;;6300507;22;20094;-64
2023/10/10 16:59:55;;;;;;;8.93;3.28;;;;;;;;;;6300500;22;20107;-63
2023/10/10 17:02:27;;;;;;;13.27;2.90;;;;;;;;;;6300374;22;20457;-63
2023/10/10 17:04:56;;;;;;;9.57;3.42;;;;;;;;;;6300164;22;20019;-64
2023/10/10 17:07:27;;;;;;;10.45;3.63;;;;;;;;;;6301218;22;20015;-64
2023/10/10 17:09:54;;;;;;;8.68;3.50;;;;;;;;;;6299900;22;20072;-64
2023/10/10 17:12:22;;;;;;;6.82;3.53;;;;;;;;;;6300504;22;20492;-64
2023/10/10 17:14:49;;;;;;;12.07;4.25;;;;;;;;;;6272996;22;20106;-64
2023/10/10 17:17:17;;;;;;;16.17;5.50;;;;;;;;;;6300588;22;20535;-64
2023/10/10 17:19:44;;;;;;;18.67;5.43;;;;;;;;;;6300373;22;20019;-62
2023/10/10 17:22:16;;;;;;;12.00;5.30;;;;;;;;;;6300473;22;20363;-64
2023/10/10 17:24:44;;;;;;;15.63;5.55;;;;;;;;;;6300459;22;20330;-64
2023/10/10 17:27:11;;;;;;;13.10;5.05;;;;;;;;;;6300083;22;20021;-64
2023/10/10 17:29:39;;;;;;;14.55;6.38;;;;;;;;;;6272960;22;20357;-63
2023/10/10 17:32:08;;;;;;;10.55;4.20;;;;;;;;;;6300067;22;20026;-62
2023/10/10 17:34:35;;;;;;;11.35;4.00;;;;;;;;;;6300249;22;20026;-62
2023/10/10 17:37:08;;;;;;;9.48;3.10;;;;;;;;;;6300346;22;20504;-65
2023/10/10 17:39:36;;;;;;;7.38;2.97;;;;;;;;;;6299899;22;20047;-64
2023/10/10 17:42:06;;;;;;;12.82;3.70;;;;;;;;;;6300143;22;20029;-63
2023/10/10 17:44:37;;;;;;;12.82;4.30;;;;;;;;;;6299723;22;20039;-63
2023/10/10 17:47:05;;;;;;;8.75;3.85;;;;;;;;;;6299609;22;20042;-65
2023/10/10 17:49:35;;;;;;;13.68;4.15;;;;;;;;;;6298084;22;20019;-63
2023/10/10 17:52:06;;;;;;;10.55;3.20;;;;;;;;;;6298166;22;20025;-63
2023/10/10 17:54:33;;;;;;;16.92;3.22;;;;;;;;;;6298336;22;20019;-65
2023/10/10 17:57:01;;;;;;;8.90;4.00;;;;;;;;;;6270783;22;20072;-64
2023/10/10 17:59:32;;;;;;;20.55;6.13;;;;;;;;;;6298286;22;20012;-64
2023/10/10 18:02:00;;;;;;;11.63;3.33;;;;;;;;;;6271263;22;20015;-64
2023/10/10 18:04:31;;;;;;;12.43;2.67;;;;;;;;;;6298458;22;20022;-63
2023/10/10 18:06:59;;;;;;;8.32;2.40;;;;;;;;;;6299003;22;20042;-64
2023/10/10 18:09:30;;;;;;;8.25;2.20;;;;;;;;;;6298785;22;20093;-64
2023/10/10 18:12:02;;;;;;;9.50;2.10;;;;;;;;;;6298669;22;20015;-63
2023/10/10 18:14:30;;;;;;;9.50;2.30;;;;;;;;;;6299109;22;20023;-64
2023/10/10 18:16:58;;;;;;;6.53;1.90;;;;;;;;;;6298769;22;20015;-65
2023/10/10 18:19:28;;;;;;;8.15;2.30;;;;;;;;;;6299048;22;20019;-64
2023/10/10 18:21:59;;;;;;;5.63;2.13;;;;;;;;;;6298880;22;20023;-64
2023/10/10 18:24:29;;;;;;;8.30;2.00;;;;;;;;;;6299092;22;20043;-64
2023/10/10 18:26:57;;;;;;;10.25;2.40;;;;;;;;;;6299320;22;20053;-63
2023/10/10 18:29:26;;;;;;;11.88;4.32;;;;;;;;;;6298776;22;20023;-63
2023/10/10 18:31:57;;;;;;;6.38;2.40;;;;;;;;;;6298301;22;20437;-63
2023/10/10 18:34:26;;;;;;;8.48;2.17;;;;;;;;;;6299748;22;20019;-63
2023/10/10 18:36:54;;;;;;;9.73;2.22;;;;;;;;;;6299109;22;20102;-62
2023/10/10 18:39:26;;;;;;;10.10;3.10;;;;;;;;;;6298917;22;20019;-64
2023/10/10 18:41:54;;;;;;;5.00;2.40;;;;;;;;;;6271820;22;20030;-63
2023/10/10 18:44:22;;;;;;;4.75;1.60;;;;;;;;;;6298901;22;20023;-63
2023/10/10 18:46:50;;;;;;;6.32;2.10;;;;;;;;;;6299801;22;20023;-63
2023/10/10 18:49:20;;;;;;;5.13;2.28;;;;;;;;;;6300011;22;20149;-63
2023/10/10 18:51:50;;;;;;;8.55;2.45;;;;;;;;;;6300193;22;20020;-62
2023/10/10 18:54:20;;;;;;;10.43;2.20;;;;;;;;;;6300287;22;20023;-64
2023/10/10 18:56:51;;;;;;;6.50;2.45;;;;;;;;;;6299584;22;20086;-64
2023/10/10 18:59:19;;;;;;;7.93;1.90;;;;;;;;;;6272714;22;20011;-64
2023/10/10 19:01:48;;;;;;;7.95;2.58;;;;;;;;;;6299978;22;20015;-63
2023/10/10 19:04:18;;;;;;;6.82;2.28;;;;;;;;;;6299589;22;20024;-64
2023/10/10 19:06:49;;;;;;;9.30;2.25;;;;;;;;;;6272459;22;20015;-64
2023/10/10 19:09:18;;;;;;;5.95;2.30;;;;;;;;;;6299207;22;20333;-64
2023/10/10 19:11:46;;;;;;;10.90;2.55;;;;;;;;;;6299930;22;20043;-63
2023/10/10 19:14:13;;;;;;;11.05;2.47;;;;;;;;;;6299864;22;20381;-64
2023/10/10 19:16:41;;;;;;;9.52;2.80;;;;;;;;;;6298895;22;20115;-64
2023/10/10 19:19:09;;;;;;;15.27;3.60;;;;;;;;;;6298841;22;20015;-64
2023/10/10 19:21:36;;;;;;;8.82;2.92;;;;;;;;;;6272548;22;20019;-64
2023/10/10 19:24:04;;;;;;;11.13;3.45;;;;;;;;;;6300063;22;20027;-64
2023/10/10 19:26:33;;;;;;;11.57;3.30;;;;;;;;;;6299889;22;20492;-64
2023/10/10 19:29:03;;;;;;;10.85;4.40;;;;;;;;;;6301941;22;20015;-63
2023/10/10 19:31:38;;;;;;;15.48;6.78;;;;;;;;;;6301556;22;20465;-63
2023/10/10 19:34:10;;;;;;;15.48;4.88;;;;;;;;;;6301377;22;20357;-63
2023/10/10 19:36:38;;;;;;;10.98;4.00;;;;;;;;;;6301890;22;20478;-64
2023/10/10 19:39:09;;;;;;;11.18;2.80;;;;;;;;;;6301786;22;20019;-64
2023/10/10 19:41:38;;;;;;;6.93;3.10;;;;;;;;;;6301918;22;20048;-64
2023/10/10 19:44:06;;;;;;;6.93;3.35;;;;;;;;;;6301109;22;20019;-64
2023/10/10 19:46:34;;;;;;;11.02;2.92;;;;;;;;;;6301145;22;20019;-64
2023/10/10 19:49:04;;;;;;;9.15;2.90;;;;;;;;;;6301573;22;20045;-64
2023/10/10 19:51:32;;;;;;;9.20;3.08;;;;;;;;;;6301183;22;20637;-65
2023/10/10 19:54:00;;;;;;;6.28;3.00;;;;;;;;;;6273754;22;20023;-64
2023/10/10 19:56:28;;;;;;;6.50;2.72;;;;;;;;;;6300572;22;20747;-64
2023/10/10 19:58:56;;;;;;;9.00;2.90;;;;;;;;;;6305726;22;20016;-64
2023/10/10 20:01:25;;;;;;;10.98;2.80;;;;;;;;;;6305750;22;20149;-64
2023/10/10 20:03:55;;;;;;;7.40;3.15;;;;;;;;;;6306435;22;20042;-64
2023/10/10 20:06:23;;;;;;;8.43;3.20;;;;;;;;;;6306625;22;20015;-63
2023/10/10 20:08:54;;;;;;;5.05;2.63;;;;;;;;;;6306613;22;20019;-63
2023/10/10 20:11:22;;;;;;;9.70;2.90;;;;;;;;;;6307743;22;20015;-64
2023/10/10 20:13:51;;;;;;;6.28;2.67;;;;;;;;;;6305970;22;20086;-64
2023/10/10 20:16:21;;;;;;;7.72;2.80;;;;;;;;;;6306385;22;20091;-65
2023/10/10 20:18:53;;;;;;;9.02;3.58;;;;;;;;;;6306547;22;20050;-63
2023/10/10 20:21:24;;;;;;;8.93;3.30;;;;;;;;;;6306096;22;20092;-64
